Saturday, December 15, 2018, 2:14 PM GMT
Back to Local

CYZX, Greenwood, N. S.

Location: , , Canada Lat: 44.983
Local Time: 2:14 PM GMT (14:14 GMT) Lon: -64.917
Time Zone: GMT Elev: 91 ft

Show me the last for .
Show Decoded

2018-12-15 14:00 METAR CYZX 151400Z 28014KT 15SM SCT015 OVC045 06/05 A3005 RMK SC3SC5 SLP176 =
2018-12-15 13:38 METAR CYZX 151338Z 28012G19KT 15SM SCT012 BKN040 06/05 A3004 RMK SC4SC3 SLP173 =
2018-12-15 13:00 METAR CYZX 151300Z 26006KT 15SM OVC013 05/05 A3002 RMK SC8 SLP169 =
2018-12-15 12:35 METAR CYZX 151235Z 25009KT 12SM OVC012 05/05 A3001 RMK SC8 SLP165 =
2018-12-15 12:00 METAR CYZX 151200Z 25009KT 6SM -DZ BR SCT005 OVC011 05/05 A3002 RMK SF3SC5
                 SLP166 =
2018-12-15 11:51 METAR CYZX 151151Z 25008KT 5SM -DZ BR SCT005 OVC011 05/05 A3002 RMK SF3SC5
                 SLP166 =
2018-12-15 11:24 METAR CYZX 151124Z 24010KT 3SM -DZ BR BKN004 OVC012 05/04 A3002 RMK SF6SC2
                 SLP168 =
2018-12-15 11:00 METAR CYZX 151100Z 24010KT 3SM -DZ BR OVC005 04/04 A3003 RMK ST8 SLP171 =
2018-12-15 10:22 METAR CYZX 151022Z 24004KT 6SM -DZ BR OVC008 04/04 A3003 RMK ST8 SLP171 =
2018-12-15 10:00 METAR CYZX 151000Z 23006KT 6SM -DZ BR OVC010 04/03 A3004 RMK ST8 SLP174 =
2018-12-15 09:00 METAR CYZX 150900Z 22010KT 6SM -DZ BR SCT014 OVC025 04/02 A3006 RMK SF4SC4
                 SLP180 =
2018-12-15 08:53 METAR CYZX 150853Z 22011KT 6SM -DZ BR SCT014 OVC025 04/02 A3007 RMK SF4SC4
                 SLP183 =
2018-12-15 08:34 METAR CYZX 150834Z 22011KT 12SM SCT014 OVC025 04/02 A3008 RMK SF4SC4 PCPN VRY
                 LGT SLP186 =
2018-12-15 08:10 METAR CYZX 150810Z 22011G16KT 12SM -SHRA BKN014 BKN060 OVC130 04/02 A3009 RMK
                 SF5SC2AC2 PCPN VRY LGT SLP191 =
2018-12-15 08:00 METAR CYZX 150800Z 22010G15KT 12SM SCT014 BKN060 OVC130 04/02 A3009 RMK
                 SF4SC2AC2 SLP191 =
2018-12-15 07:37 METAR CYZX 150737Z 21009G16KT 12SM SCT012 BKN063 OVC150 03/02 A3010 RMK
                 SF4SC2AC2 SLP195 =
2018-12-15 07:00 METAR CYZX 150700Z 21008KT 10SM OVC007 03/01 A3013 RMK ST8 SLP206 =
2018-12-15 06:13 METAR CYZX 150613Z 22011KT 12SM OVC007 02/01 A3017 RMK ST8 SLP217 =
2018-12-15 06:00 METAR CYZX 150600Z 22009G15KT 12SM OVC010 02/01 A3017 RMK ST8 SLP218 =
2018-12-15 05:28 METAR CYZX 150528Z 23007KT 12SM BKN010 OVC058 02/00 A3018 RMK ST6SC2 SLP223 =
2018-12-15 05:00 METAR CYZX 150500Z 23006KT 12SM FEW012 OVC058 02/00 A3020 RMK SF2SC6 SLP228 =
2018-12-15 04:27 METAR CYZX 150427Z 23006KT 12SM FEW012 OVC058 01/00 A3021 RMK SF2SC6 SLP232 =
2018-12-15 04:00 METAR CYZX 150400Z 21007KT 12SM FEW060 SCT150 BKN240 02/M01 A3023 RMK SC2AC2CI3
                 SLP237 =
2018-12-15 03:00 METAR CYZX 150300Z 21009G16KT 15SM FEW063 BKN160 BKN240 01/00 A3028 RMK
                 SC2AC2CI2 SLP254 =
2018-12-15 02:00 METAR CYZX 150200Z 20007KT 15SM FEW022 BKN063 BKN210 01/M00 A3032 RMK SC2SC4CI2
                 SLP269 =
2018-12-15 01:00 METAR CYZX 150100Z 22007KT 15SM FEW022 BKN210 01/M00 A3037 RMK SC2CI2 SLP288 =
2018-12-15 00:00 METAR CYZX 150000Z 21009KT 15SM SCT033 BKN210 02/00 A3038 RMK SC4CI2 SLP291 =
2018-12-14 23:33 METAR CYZX 142333Z 20008KT 15SM SCT033 BKN210 02/00 A3037 RMK SC4CI2 SLP286 =
2018-12-14 23:00 METAR CYZX 142300Z 22007KT 15SM BKN033 BKN200 02/01 A3038 RMK SC6CI2 SLP289 =
2018-12-14 22:00 METAR CYZX 142200Z 22009KT 15SM BKN033 02/01 A3039 RMK SC7 SLP294 =
2018-12-14 21:39 METAR CYZX 142139Z 23009KT 15SM FEW017 BKN033 02/01 A3041 RMK SC2SC6 SLP299 =
2018-12-14 21:00 METAR CYZX 142100Z 23008KT 15SM BKN017 BKN030 02/01 A3041 RMK SC6SC1 SLP300 =
2018-12-14 20:31 METAR CYZX 142031Z 22007KT 12SM BKN017 OVC035 02/01 A3042 RMK SC6SC2 SLP304 =
2018-12-14 20:00 METAR CYZX 142000Z 24008KT 3SM -SHRA BR BKN017 OVC040 02/01 A3043 RMK SC6SC2
                 PCPN VRY LGT SLP306 =
2018-12-14 19:37 METAR CYZX 141937Z 23005KT 3SM -SHRA BR OVC017 02/01 A3043 RMK SC8 PCPN VRY LGT
                 SLP307 =
2018-12-14 19:18 METAR CYZX 141918Z 25005KT 2SM -SHRASN FEW005 BKN021 01/01 A3043 RMK SF1SC6 VIS
                 HIER E PCPN VRY LGT SLP306 =
2018-12-14 19:00 METAR CYZX 141900Z 25005KT 1 1/4SM -SHSN FEW005 BKN017 01/01 A3043 RMK SF2SC6
                 PCPN VRY LGT SLP308 =
2018-12-14 18:00 METAR CYZX 141800Z 25007KT 1SM -SHSN FEW006 OVC017 00/M00 A3044 RMK SF1SC7 /S01/
                 SLP310 =
2018-12-14 17:35 METAR CYZX 141735Z 24004KT 1SM -SHSN OVC015 00/M01 A3045 RMK SC8 SLP313 =
2018-12-14 17:00 METAR CYZX 141700Z 22005KT 1SM -SHSN OVC015 M01/M01 A3047 RMK SC8 SLP320 =
2018-12-14 16:47 METAR CYZX 141647Z 22005KT 1SM -SHSN OVC015 M01/M02 A3047 RMK SC8 SLP320 =
2018-12-14 16:16 METAR CYZX 141616Z 25006KT 2SM -SHSN OVC015 M01/M02 A3048 RMK SC8 SLP323 =
2018-12-14 16:00 METAR CYZX 141600Z 24006KT 1SM -SHSN OVC015 M02/M03 A3048 RMK SC8 SLP325 =
2018-12-14 15:34 METAR CYZX 141534Z 25006KT 1SM -SHSN OVC015 M03/M04 A3049 RMK SC8 SLP326 =
2018-12-14 15:23 METAR CYZX 141523Z 25004KT 1 1/2SM -SHSN OVC018 M03/M06 A3050 RMK SC8 SLP330 =
2018-12-14 15:00 METAR CYZX 141500Z 27004KT 12SM -SHSN OVC018 M04/M05 A3051 RMK SC8 SLP333 =

Support USWX by starting your Amazon purchase here.